Flight Track Log - Related Links

Times and Time Zones

All times are in EDT time to prevent confusion due to time zone crossing. See the AAL1653 flight status page for this flight to view local times or setup timezone preferences in your user account.

Time Position Orientation Groundspeed Altitude Reporting Facility
EDT Latitude Longitude Course Direction KTS MPH feet Rate Location/Type
Sun 02:47:24 PM 35.8664 -78.8139 258° West 154 177 1,600  Level Washington Center
Sun 02:47:55 PM 35.8494 -78.8286 215° Southwest 156 180 2,300 1,912 Climbing Washington Center
Sun 02:48:55 PM 35.8183 -78.8964 241° Southwest 249 287 4,500 2,522 Climbing Washington Center
Sun 02:49:00 PM 35.8408 -79.1794 265° West  Level FlightAware Approximate
Sun 02:50:00 PM 35.8320 -79.3121 262° West  Level FlightAware Approximate
Sun 02:50:32 PM 35.8314 -79.0275 277° West 276 318 8,900  Level Washington Center
Sun 02:51:00 PM 35.8173 -79.4440 262° West  Level FlightAware Approximate
Sun 02:51:33 PM 35.8619 -79.1186 293° West 273 314 11,600  Level Washington Center
Sun 02:52:00 PM 35.7962 -79.5561 258° West  Level FlightAware Approximate
Sun 02:52:33 PM 35.8903 -79.2200 289° West 293 337 13,800  Level Washington Center
Sun 02:54:20 PM 35.9464 -79.4244 289° West 336 387 16,800 1,473 Climbing Atlanta Center
Sun 02:55:20 PM 35.9322 -79.5458 262° West 351 404 17,900 900 Climbing Atlanta Center
Sun 02:56:20 PM 35.9136 -79.6672 259° West 361 415 18,600 1,150 Climbing Atlanta Center
Sun 02:57:20 PM 35.9469 -79.7808 290° West 372 428 20,200 1,650 Climbing Atlanta Center
Sun 02:58:20 PM 35.9744 -79.9128 284° West 383 441 21,900 1,750 Climbing Atlanta Center
Sun 02:59:20 PM 36.0039 -80.0475 285° West 399 459 23,700 1,650 Climbing Atlanta Center
Sun 03:00:20 PM 36.0311 -80.1822 284° West 404 465 25,200 1,650 Climbing Atlanta Center
Sun 03:01:20 PM 36.0650 -80.3372 285° West 417 480 27,000 1,600 Climbing Atlanta Center
Sun 03:02:20 PM 36.0942 -80.4772 284° West 427 491 28,400 1,000 Climbing Atlanta Center
Sun 03:03:20 PM 36.1275 -80.6222 286° West 427 491 29,000 300 Climbing Atlanta Center
Sun 03:04:20 PM 36.1586 -80.7703 285° West 434 499 29,000  Level Atlanta Center
Sun 03:05:20 PM 36.1978 -80.9100 289° West 429 494 29,000  Level Atlanta Center
Sun 03:06:20 PM 36.2861 -81.0200 315° West 432 497 29,000  Level Atlanta Center
Sun 03:07:20 PM 36.3961 -81.0856 334° Northwest 432 497 29,000  Level Atlanta Center
Sun 03:08:20 PM 36.5061 -81.1589 332° Northwest 439 505 29,000 700 Level Atlanta Center
Sun 03:09:20 PM 36.6181 -81.2169 337° Northwest 437 503 30,400 1,300 Climbing Atlanta Center
Sun 03:10:20 PM 36.7319 -81.2750 338° Northwest 437 503 31,600 1,100 Climbing Atlanta Center
Sun 03:11:20 PM 36.8075 -81.3839 311° West 420 483 32,600 950 Climbing Atlanta Center
Sun 03:12:20 PM 36.8847 -81.4956 311° West 412 474 33,500 457 Climbing Atlanta Center
Sun 03:14:24 PM 37.0703 -81.6906 320° Northwest 433 498 34,000 161 Climbing Indianapolis Center
Sun 03:15:26 PM 37.1722 -81.7708 328° Northwest 432 497 34,000 -48 Level Indianapolis Center
Sun 03:16:28 PM 37.2881 -81.8686 326° Northwest 431 496 33,900 -48 Descending Indianapolis Center
Sun 03:17:30 PM 37.3942 -81.9433 331° Northwest 432 497 33,900 48 Level Indianapolis Center
Sun 03:18:32 PM 37.5014 -82.0186 331° Northwest 439 505 34,000  Climbing Indianapolis Center
Sun 03:19:35 PM 37.6031 -82.0994 328° Northwest 436 502 33,900  Descending Indianapolis Center
Sun 03:20:37 PM 37.6908 -82.2050 316° Northwest 439 505 34,000 48 Climbing Indianapolis Center
Sun 03:21:39 PM 37.7911 -82.3325 315° West 438 504 34,000  Level Indianapolis Center
Sun 03:22:41 PM 37.8700 -82.4456 311° West 432 497 34,000 -48 Level Indianapolis Center
Sun 03:23:43 PM 37.9533 -82.5564 314° West 433 498 33,900  Descending Indianapolis Center
Sun 03:24:45 PM 38.0347 -82.6719 312° West 442 509 34,000 48 Climbing Indianapolis Center
Sun 03:25:47 PM 38.1003 -82.7986 303° West 436 502 34,000  Level Indianapolis Center
Sun 03:26:49 PM 38.1819 -82.9486 305° West 441 507 34,000 -48 Level Indianapolis Center
Sun 03:27:51 PM 38.2528 -83.0733 306° West 435 501 33,900 -48 Descending Indianapolis Center
Sun 03:28:53 PM 38.3492 -83.1678 322° Northwest 437 503 33,900  Level Indianapolis Center
Sun 03:29:55 PM 38.4417 -83.2711 319° Northwest 441 507 33,900 48 Level Indianapolis Center
Sun 03:30:57 PM 38.5339 -83.3744 319° Northwest 440 506 34,000 48 Climbing Indianapolis Center
Sun 03:31:59 PM 38.6253 -83.4783 318° Northwest 439 505 34,000 -48 Level Indianapolis Center
Sun 03:33:01 PM 38.7242 -83.5914 318° Northwest 437 503 33,900 -48 Descending Indianapolis Center
Sun 03:34:03 PM 38.8164 -83.6950 319° Northwest 435 501 33,900  Level Indianapolis Center
Sun 03:35:05 PM 38.9086 -83.8031 318° Northwest 443 510 33,900  Level Indianapolis Center
Sun 03:36:07 PM 39.0000 -83.9072 318° Northwest 436 502 33,900  Level Indianapolis Center
Sun 03:37:10 PM 39.1067 -84.0308 318° Northwest 435 501 33,900  Level Indianapolis Center
Sun 03:38:12 PM 39.1986 -84.1364 318° Northwest 435 501 33,900  Level Indianapolis Center
Sun 03:39:14 PM 39.2894 -84.2436 318° Northwest 436 502 33,900  Level Indianapolis Center
Sun 03:40:16 PM 39.3806 -84.3503 318° Northwest 436 502 33,900 -484 Level Indianapolis Center
Sun 03:41:18 PM 39.4719 -84.4569 318° Northwest 436 502 32,900 -1,161 Descending Indianapolis Center
Sun 03:42:20 PM 39.5639 -84.5647 318° Northwest 439 505 31,500 -1,403 Descending Indianapolis Center
Sun 03:43:22 PM 39.6561 -84.6742 318° Northwest 444 511 30,000 -1,403 Descending Indianapolis Center
Sun 03:44:24 PM 39.7519 -84.7892 317° Northwest 458 527 28,600 -960 Descending Indianapolis Center
Sun 03:45:27 PM 39.8658 -84.9233 318° Northwest 468 539 28,000 -339 Descending Indianapolis Center
Sun 03:46:28 PM 39.9622 -85.0386 318° Northwest 471 542 27,900 -537 Descending Indianapolis Center
Sun 03:47:30 PM 40.0575 -85.1517 318° Northwest 468 539 26,900 -919 Descending Indianapolis Center
Sun 03:48:32 PM 40.1500 -85.2631 317° Northwest 459 528 26,000 -435 Descending Indianapolis Center
Sun 03:49:34 PM 40.2417 -85.3750 317° Northwest 455 524 26,000  Level Indianapolis Center
Sun 03:49:57 PM 40.2778 -85.4167 319° Northwest 451 519 26,000 -635 Level Chicago Center
Sun 03:50:59 PM 40.3692 -85.5281 317° Northwest 451 519 25,100 -968 Descending Chicago Center
Sun 03:52:01 PM 40.4767 -85.6606 317° Northwest 446 513 24,000 -919 Descending Chicago Center
Sun 03:53:03 PM 40.5478 -85.7900 306° West 442 509 23,200 -871 Descending Chicago Center
Sun 03:54:05 PM 40.6206 -85.9156 307° West 436 502 22,200 -581 Descending Chicago Center
Sun 03:55:07 PM 40.7006 -86.0508 308° West 426 490 22,000 -97 Descending Chicago Center
Sun 03:56:09 PM 40.7722 -86.1747 307° West 424 488 22,000  Level Chicago Center
Sun 03:57:11 PM 40.8461 -86.3000 308° West 431 496 22,000  Level Chicago Center
Sun 03:58:13 PM 40.9203 -86.4244 308° West 431 496 22,000  Level Chicago Center
Sun 03:59:15 PM 40.9925 -86.5511 307° West 429 494 22,000 -194 Level Chicago Center
Sun 04:00:17 PM 41.0647 -86.6758 308° West 426 490 21,600 -1,210 Descending Chicago Center
Sun 04:01:19 PM 41.1542 -86.8281 308° West 426 490 19,500 -1,824 Descending Chicago Center
Sun 04:02:22 PM 41.2250 -86.9469 308° West 415 478 17,800 -1,872 Descending Chicago Center
Sun 04:03:24 PM 41.2886 -87.0644 306° West 399 459 15,600 -2,177 Descending Chicago Center
Sun 04:04:26 PM 41.3539 -87.1767 308° West 391 450 13,300 -1,935 Descending Chicago Center
Sun 04:05:28 PM 41.4294 -87.2733 316° Northwest 383 441 11,600 -1,161 Descending Chicago Center
Sun 04:06:30 PM 41.5161 -87.3756 319° Northwest 359 413 10,900 -339 Descending Chicago Center
Sun 04:07:32 PM 41.5881 -87.4550 320° Northwest 342 394 10,900  Level Chicago Center
Sun 04:08:34 PM 41.6614 -87.5358 321° Northwest 345 397 10,900 -288 Level Chicago Center
Sun 04:09:37 PM 41.7272 -87.6117 319° Northwest 317 365 10,300 -1,091 Descending Chicago Center
Sun 04:10:35 PM 41.8000 -87.6833 324° Northwest 280 322 8,700 -1,576 Descending Chicago TRACON
Sun 04:11:35 PM 41.8667 -87.7000 349° North 293 337 7,200 -900 Descending Chicago TRACON
Sun 04:12:35 PM 41.9500 -87.7167 352° North 283 326 6,900 -450 Descending Chicago TRACON
Sun 04:13:35 PM 42.0167 -87.7000 11° North 240 276 6,300 -1,000 Descending Chicago TRACON
Sun 04:14:35 PM 42.0833 -87.6833 11° North 245 282 4,900 -1,700 Descending Chicago TRACON
Sun 04:15:35 PM 42.1167 -87.7500 304° West 219 252 2,900 -2,000 Descending Chicago TRACON

Login

Don't have an account? Register now (free) for customized features, flight alerts, and more!